Evnia — 5BJG3 — position and weather

sailwx.info

Track history (hours):
 
Tides and Currents Weather Stations Pressure Air Temp Water Temp Dewpoint Dewpoint Depression Visibility Wind Speed Wind Dir Waves Ship Positions

Evnia

Last reported at 2018-Apr-26 16:58 UTC. Time now 2018-Apr-27 05:02 UTC.
Position N 34°05' E 126°46'.

Length 190 m; draft 6.8 m.

Type: Cargo ship. MMSI: 209279000.

Date/timePositionNaut miles runAvg speedWind from/ knotsBaromVisibWave heightAir tempDewpointWater temp
2018-Apr-26 16:58N 34°05' E 126°46'3411.6
2018-Apr-26 14:02N 34°10' E 127°27'111.8
2018-Apr-26 13:57N 34°10' E 127°28'612.2
2018-Apr-26 13:29N 34°11' E 127°35'7312.5
2018-Apr-26 07:35N 34°46' E 128°53'213.0
2018-Apr-26 07:25N 34°48' E 128°55'612.8
2018-Apr-26 06:55N 34°53' E 129°00'512.9
2018-Apr-26 06:30N 34°57' E 129°05'713.0
2018-Apr-26 06:00N 35°01' E 129°10'712.9
2018-Apr-26 05:28N 35°06' E 129°16'3012.8
2018-Apr-26 03:08N 35°31' E 129°37'  
2018-Apr-20 20:31N 35°46' E 124°41'012.0
2018-Apr-20 20:30N 35°46' E 124°41'612.0
2018-Apr-20 20:00N 35°52' E 124°38'612.2
2018-Apr-20 19:31N 35°57' E 124°35'612.4
2018-Apr-20 19:00N 36°03' E 124°32'612.6
2018-Apr-20 18:30N 36°08' E 124°28'612.7
2018-Apr-20 18:00N 36°14' E 124°25'4612.9
2018-Apr-20 14:28N 36°55' E 124°00'1812.2
2018-Apr-20 12:58N 37°12' E 123°51'611.7
2018-Apr-20 12:26N 37°18' E 123°48'511.7
2018-Apr-20 12:00N 37°22' E 123°45'711.8
2018-Apr-20 11:22N 37°29' E 123°41'711.9
2018-Apr-20 10:46N 37°35' E 123°36'713.0
2018-Apr-20 10:16N 37°38' E 123°28'3013.5
2018-Apr-20 08:03N 37°54' E 122°57'213.4
2018-Apr-20 07:56N 37°55' E 122°55'4112.7
2018-Apr-20 04:44N 38°11' E 122°07'512.3
2018-Apr-20 04:21N 38°13' E 122°02'412.3
2018-Apr-20 04:00N 38°14' E 121°56'612.3
2018-Apr-20 03:30N 38°16' E 121°49'612.2
2018-Apr-20 03:00N 38°18' E 121°41'612.4
2018-Apr-20 02:30N 38°19' E 121°34'612.6
2018-Apr-20 01:59N 38°21' E 121°26'713.1
2018-Apr-20 01:28N 38°24' E 121°18'613.4
2018-Apr-20 01:00N 38°26' E 121°11'714.2
2018-Apr-20 00:30N 38°29' E 121°02'1014.0
2018-Apr-19 23:48N 38°33' E 120°51'1614.0
2018-Apr-19 22:40N 38°39' E 120°32'313.5
2018-Apr-19 22:29N 38°40' E 120°29'713.7
2018-Apr-19 22:00N 38°43' E 120°22'713.3
2018-Apr-19 21:31N 38°45' E 120°14'813.0
2018-Apr-19 20:53N 38°48' E 120°04'512.7
2018-Apr-19 20:30N 38°50' E 119°58'712.7
2018-Apr-19 19:55N 38°52' E 119°49'1812.5
2018-Apr-19 18:28N 38°59' E 119°28'1212.5
2018-Apr-19 17:30N 39°02' E 119°13'  
2018-Apr-16 22:41N 38°47' E 120°16'610.3
2018-Apr-16 22:05N 38°45' E 120°24'110.3
2018-Apr-16 22:00N 38°44' E 120°25'510.3
2018-Apr-16 21:30N 38°43' E 120°31'610.5
2018-Apr-16 20:55N 38°41' E 120°39'2611.4
2018-Apr-16 18:38N 38°30' E 121°09'312.2
2018-Apr-16 18:24N 38°29' E 121°12'512.1
2018-Apr-16 17:58N 38°26' E 121°18'612.2
2018-Apr-16 17:30N 38°23' E 121°24'612.1
2018-Apr-16 16:59N 38°20' E 121°31'  
Track history (hours):
 
Tides and Currents Weather Stations Pressure Air Temp Water Temp Dewpoint Dewpoint Depression Visibility Wind Speed Wind Dir Waves Ship Positions

Evnia

Last reported at 2018-Apr-26 16:58 UTC. Time now 2018-Apr-27 05:02 UTC.
Position N 34°05' E 126°46'.

Length 190 m; draft 6.8 m.

Type: Cargo ship. MMSI: 209279000.

Date/timePositionNaut miles runAvg speedWind from/ knotsBaromVisibWave heightAir tempDewpointWater temp
2018-Apr-26 16:58N 34°05' E 126°46'3411.6
2018-Apr-26 14:02N 34°10' E 127°27'111.8
2018-Apr-26 13:57N 34°10' E 127°28'612.2
2018-Apr-26 13:29N 34°11' E 127°35'7312.5
2018-Apr-26 07:35N 34°46' E 128°53'213.0
2018-Apr-26 07:25N 34°48' E 128°55'612.8
2018-Apr-26 06:55N 34°53' E 129°00'512.9
2018-Apr-26 06:30N 34°57' E 129°05'713.0
2018-Apr-26 06:00N 35°01' E 129°10'712.9
2018-Apr-26 05:28N 35°06' E 129°16'3012.8
2018-Apr-26 03:08N 35°31' E 129°37'  
2018-Apr-20 20:31N 35°46' E 124°41'012.0
2018-Apr-20 20:30N 35°46' E 124°41'612.0
2018-Apr-20 20:00N 35°52' E 124°38'612.2
2018-Apr-20 19:31N 35°57' E 124°35'612.4
2018-Apr-20 19:00N 36°03' E 124°32'612.6
2018-Apr-20 18:30N 36°08' E 124°28'612.7
2018-Apr-20 18:00N 36°14' E 124°25'4612.9
2018-Apr-20 14:28N 36°55' E 124°00'1812.2
2018-Apr-20 12:58N 37°12' E 123°51'611.7
2018-Apr-20 12:26N 37°18' E 123°48'511.7
2018-Apr-20 12:00N 37°22' E 123°45'711.8
2018-Apr-20 11:22N 37°29' E 123°41'711.9
2018-Apr-20 10:46N 37°35' E 123°36'713.0
2018-Apr-20 10:16N 37°38' E 123°28'3013.5
2018-Apr-20 08:03N 37°54' E 122°57'213.4
2018-Apr-20 07:56N 37°55' E 122°55'4112.7
2018-Apr-20 04:44N 38°11' E 122°07'512.3
2018-Apr-20 04:21N 38°13' E 122°02'412.3
2018-Apr-20 04:00N 38°14' E 121°56'612.3
2018-Apr-20 03:30N 38°16' E 121°49'612.2
2018-Apr-20 03:00N 38°18' E 121°41'612.4
2018-Apr-20 02:30N 38°19' E 121°34'612.6
2018-Apr-20 01:59N 38°21' E 121°26'713.1
2018-Apr-20 01:28N 38°24' E 121°18'613.4
2018-Apr-20 01:00N 38°26' E 121°11'714.2
2018-Apr-20 00:30N 38°29' E 121°02'1014.0
2018-Apr-19 23:48N 38°33' E 120°51'1614.0
2018-Apr-19 22:40N 38°39' E 120°32'313.5
2018-Apr-19 22:29N 38°40' E 120°29'713.7
2018-Apr-19 22:00N 38°43' E 120°22'713.3
2018-Apr-19 21:31N 38°45' E 120°14'813.0
2018-Apr-19 20:53N 38°48' E 120°04'512.7
2018-Apr-19 20:30N 38°50' E 119°58'712.7
2018-Apr-19 19:55N 38°52' E 119°49'1812.5
2018-Apr-19 18:28N 38°59' E 119°28'1212.5
2018-Apr-19 17:30N 39°02' E 119°13'  
2018-Apr-16 22:41N 38°47' E 120°16'610.3
2018-Apr-16 22:05N 38°45' E 120°24'110.3
2018-Apr-16 22:00N 38°44' E 120°25'510.3
2018-Apr-16 21:30N 38°43' E 120°31'610.5
2018-Apr-16 20:55N 38°41' E 120°39'2611.4
2018-Apr-16 18:38N 38°30' E 121°09'312.2
2018-Apr-16 18:24N 38°29' E 121°12'512.1
2018-Apr-16 17:58N 38°26' E 121°18'612.2
2018-Apr-16 17:30N 38°23' E 121°24'612.1
2018-Apr-16 16:59N 38°20' E 121°31'  

Dump ship's entire track history